createdAt,value
2023-04-18T00:00:28.581Z,10.93
2023-04-18T00:02:55.523Z,10.93
2023-04-18T00:05:22.729Z,10.92
2023-04-18T00:07:49.677Z,10.89
2023-04-18T00:10:16.897Z,10.87
2023-04-18T00:12:43.560Z,10.86
2023-04-18T00:15:10.687Z,10.85
2023-04-18T00:17:37.444Z,10.82
2023-04-18T00:20:05.732Z,10.83
2023-04-18T00:22:32.507Z,10.81
2023-04-18T00:24:59.878Z,10.78
2023-04-18T00:27:26.501Z,10.77
2023-04-18T00:29:53.153Z,10.74
2023-04-18T00:32:19.839Z,10.73
2023-04-18T00:34:46.633Z,10.71
2023-04-18T00:37:13.323Z,10.70
2023-04-18T00:39:41.940Z,10.68
2023-04-18T00:42:08.800Z,10.68
2023-04-18T00:44:35.492Z,10.67
2023-04-18T00:47:02.121Z,10.66
2023-04-18T00:49:28.947Z,10.66
2023-04-18T00:51:56.597Z,10.66
2023-04-18T00:54:24.609Z,10.63
2023-04-18T00:56:51.633Z,10.63
2023-04-18T00:59:18.866Z,10.62
2023-04-18T01:01:45.751Z,10.63
2023-04-18T01:04:12.676Z,10.60
2023-04-18T01:06:40.458Z,10.52
2023-04-18T01:09:07.181Z,10.58
2023-04-18T01:11:33.833Z,10.59
2023-04-18T01:14:05.821Z,10.58
2023-04-18T01:16:35.483Z,10.58
2023-04-18T01:19:03.358Z,10.57
2023-04-18T01:21:31.157Z,10.55
2023-04-18T01:24:07.818Z,10.51
2023-04-18T01:26:34.450Z,10.52
2023-04-18T01:29:04.780Z,10.51
2023-04-18T01:31:34.683Z,10.53
2023-04-18T01:34:01.357Z,10.52
2023-04-18T01:36:28.037Z,10.50
2023-04-18T01:38:54.989Z,10.49
2023-04-18T01:41:22.426Z,10.49
2023-04-18T01:43:49.071Z,10.50
2023-04-18T01:46:15.905Z,10.47
2023-04-18T01:48:42.961Z,10.46
2023-04-18T01:51:09.696Z,10.46
2023-04-18T01:53:38.159Z,10.46
2023-04-18T01:56:05.073Z,10.46
2023-04-18T01:58:31.777Z,10.46
2023-04-18T02:00:58.857Z,10.46
2023-04-18T02:03:25.746Z,10.47
2023-04-18T02:05:52.952Z,10.46
2023-04-18T02:08:19.733Z,10.46
2023-04-18T02:10:46.402Z,10.47
2023-04-18T02:13:12.980Z,10.46
2023-04-18T02:15:39.673Z,10.47
2023-04-18T02:18:06.484Z,10.47
2023-04-18T02:20:33.121Z,10.44
2023-04-18T02:23:03.191Z,10.47
2023-04-18T02:25:30.381Z,10.45
2023-04-18T02:27:57.747Z,10.47
2023-04-18T02:30:25.568Z,10.42
2023-04-18T02:32:53.170Z,10.42
2023-04-18T02:35:24.322Z,10.40
2023-04-18T02:37:51.201Z,10.37
2023-04-18T02:40:18.674Z,10.36
2023-04-18T02:42:45.697Z,10.34
2023-04-18T02:45:14.793Z,10.34
2023-04-18T02:47:53.838Z,10.33
2023-04-18T02:50:21.897Z,10.35
2023-04-18T02:52:49.052Z,10.34
2023-04-18T02:55:18.026Z,10.34
2023-04-18T02:57:45.460Z,10.33
2023-04-18T03:00:53.308Z,10.36
2023-04-18T03:03:43.024Z,10.38
2023-04-18T03:06:41.857Z,10.35
2023-04-18T03:09:08.916Z,10.34
2023-04-18T03:11:39.724Z,10.29
2023-04-18T03:14:06.896Z,10.26
2023-04-18T03:16:41.566Z,10.25
2023-04-18T03:19:11.671Z,10.24
2023-04-18T03:21:38.425Z,10.21
2023-04-18T03:24:05.785Z,10.20
2023-04-18T03:26:34.004Z,10.20
2023-04-18T03:29:01.841Z,10.19
2023-04-18T03:31:29.007Z,10.17
2023-04-18T03:33:55.691Z,10.16
2023-04-18T03:36:22.434Z,10.16
2023-04-18T03:38:49.059Z,10.19
2023-04-18T03:41:15.743Z,10.21
2023-04-18T03:43:42.377Z,10.21
2023-04-18T03:46:09.015Z,10.20
2023-04-18T03:48:36.620Z,10.21
2023-04-18T03:51:07.743Z,10.20
2023-04-18T03:53:35.462Z,10.15
2023-04-18T03:56:02.182Z,10.13
2023-04-18T03:58:44.512Z,10.11
2023-04-18T04:01:11.408Z,10.07
2023-04-18T04:03:38.819Z,10.05
2023-04-18T04:06:06.388Z,10.07
2023-04-18T04:08:34.007Z,10.06
2023-04-18T04:11:01.006Z,10.07
2023-04-18T04:13:28.099Z,10.07
2023-04-18T04:15:55.014Z,10.07
2023-04-18T04:18:21.740Z,10.09
2023-04-18T04:20:48.365Z,10.09
2023-04-18T04:23:28.284Z,10.10
2023-04-18T04:25:55.582Z,10.13
2023-04-18T04:28:35.907Z,10.14
2023-04-18T04:31:04.771Z,10.12
2023-04-18T04:33:31.545Z,10.11
2023-04-18T04:36:00.743Z,10.08
2023-04-18T04:38:29.352Z,10.06
2023-04-18T04:40:56.259Z,10.06
2023-04-18T04:43:23.238Z,10.06
2023-04-18T04:45:50.792Z,10.07
2023-04-18T04:48:22.093Z,10.07
2023-04-18T04:50:54.331Z,10.08
2023-04-18T04:53:21.564Z,10.08
2023-04-18T04:55:49.197Z,10.07
2023-04-18T04:58:17.434Z,10.07
2023-04-18T05:01:02.654Z,10.09
2023-04-18T05:03:31.603Z,10.13
2023-04-18T05:05:58.429Z,10.14
2023-04-18T05:08:25.232Z,10.17
2023-04-18T05:10:51.955Z,10.21
2023-04-18T05:13:18.591Z,10.25
2023-04-18T05:15:45.330Z,10.27
2023-04-18T05:18:11.993Z,10.31
2023-04-18T05:20:38.649Z,10.35
2023-04-18T05:23:05.301Z,10.37
2023-04-18T05:25:32.058Z,10.41
2023-04-18T05:28:00.490Z,10.45
2023-04-18T05:30:27.082Z,10.50
2023-04-18T05:32:53.812Z,10.55
2023-04-18T05:35:20.523Z,10.61
2023-04-18T05:37:47.166Z,10.70
2023-04-18T05:40:14.110Z,10.77
2023-04-18T05:42:40.757Z,10.83
2023-04-18T05:45:07.962Z,10.91
2023-04-18T05:47:34.657Z,10.95
2023-04-18T05:50:01.332Z,11.04
2023-04-18T05:52:27.924Z,11.10
2023-04-18T05:54:54.652Z,11.16
2023-04-18T05:57:21.207Z,11.20
2023-04-18T05:59:47.910Z,11.29
2023-04-18T06:02:14.969Z,11.32
2023-04-18T06:04:42.883Z,11.34
2023-04-18T06:07:10.197Z,11.36
2023-04-18T06:09:36.933Z,11.36
2023-04-18T06:12:04.010Z,11.40
2023-04-18T06:14:30.824Z,11.43
2023-04-18T06:16:57.567Z,11.48
2023-04-18T06:19:24.206Z,11.51
2023-04-18T06:21:52.206Z,11.56
2023-04-18T06:24:18.823Z,11.65
2023-04-18T06:26:45.410Z,11.76
2023-04-18T06:29:12.172Z,11.87
2023-04-18T06:31:38.845Z,12.01
2023-04-18T06:34:06.332Z,12.04
2023-04-18T06:36:35.463Z,12.05
2023-04-18T06:39:02.147Z,12.10
2023-04-18T06:41:28.722Z,12.13
2023-04-18T06:44:03.578Z,12.17
2023-04-18T06:46:31.714Z,12.23
2023-04-18T06:48:58.626Z,12.29
2023-04-18T06:51:25.254Z,12.42
2023-04-18T06:53:51.827Z,12.51
2023-04-18T06:56:21.632Z,12.57
2023-04-18T06:58:48.656Z,12.64
2023-04-18T07:01:15.416Z,12.71
2023-04-18T07:03:42.134Z,12.73
2023-04-18T07:06:08.894Z,12.74
2023-04-18T07:08:36.047Z,12.78
2023-04-18T07:11:02.655Z,12.69
2023-04-18T07:13:29.321Z,12.68
2023-04-18T07:15:56.108Z,12.73
2023-04-18T07:18:34.162Z,12.82
2023-04-18T07:21:03.900Z,12.75
2023-04-18T07:23:30.510Z,12.77
2023-04-18T07:25:57.081Z,12.83
2023-04-18T07:28:23.757Z,12.81
2023-04-18T07:30:50.494Z,12.70
2023-04-18T07:33:17.158Z,12.68
2023-04-18T07:35:43.795Z,12.69
2023-04-18T07:38:10.366Z,12.70
2023-04-18T07:40:36.923Z,12.73
2023-04-18T07:43:03.649Z,12.83
2023-04-18T07:45:31.046Z,13.00
2023-04-18T07:47:57.780Z,13.04
2023-04-18T07:50:24.575Z,13.14
2023-04-18T07:52:51.187Z,13.29
2023-04-18T07:55:17.876Z,13.34
2023-04-18T07:57:45.949Z,13.41
2023-04-18T08:00:14.469Z,13.55
2023-04-18T08:02:41.456Z,13.58
2023-04-18T08:05:09.039Z,13.58
2023-04-18T08:07:36.320Z,13.51
2023-04-18T08:10:03.679Z,13.47
2023-04-18T08:12:30.547Z,13.48
2023-04-18T08:14:57.114Z,13.49
2023-04-18T08:17:24.036Z,13.42
2023-04-18T08:19:50.928Z,13.39
2023-04-18T08:22:17.484Z,13.29
2023-04-18T08:25:01.008Z,13.28
2023-04-18T08:27:30.317Z,13.20
2023-04-18T08:29:56.951Z,13.21
2023-04-18T08:32:23.818Z,13.18
2023-04-18T08:34:50.424Z,13.20
2023-04-18T08:37:17.404Z,13.22
2023-04-18T08:39:44.153Z,13.23
2023-04-18T08:42:10.996Z,13.31
2023-04-18T08:44:37.690Z,13.43
2023-04-18T08:47:04.517Z,13.44
2023-04-18T08:49:31.263Z,13.41
2023-04-18T08:51:59.977Z,13.41
2023-04-18T08:54:27.511Z,13.52
2023-04-18T08:57:07.213Z,13.45
2023-04-18T08:59:33.907Z,13.43
2023-04-18T09:02:00.527Z,13.43
2023-04-18T09:04:39.145Z,13.43
2023-04-18T09:07:09.253Z,13.39
2023-04-18T09:09:47.891Z,13.41
2023-04-18T09:12:19.320Z,13.32
2023-04-18T09:14:46.648Z,13.22
2023-04-18T09:17:15.653Z,13.17
2023-04-18T09:19:49.296Z,13.16
2023-04-18T09:22:17.155Z,13.24
2023-04-18T09:24:53.123Z,13.25
2023-04-18T09:27:20.032Z,13.31
2023-04-18T09:29:48.393Z,13.29
2023-04-18T09:32:29.287Z,13.22
2023-04-18T09:35:03.415Z,13.19
2023-04-18T09:37:31.355Z,13.21
2023-04-18T09:39:58.044Z,13.25
2023-04-18T09:42:28.205Z,13.29
2023-04-18T09:45:07.051Z,13.28
2023-04-18T09:47:35.634Z,13.26
2023-04-18T09:50:07.562Z,13.38
2023-04-18T09:52:36.213Z,13.40
2023-04-18T09:55:05.623Z,13.37
2023-04-18T09:57:33.872Z,13.40
2023-04-18T10:00:03.815Z,13.28
2023-04-18T10:02:39.140Z,13.37
2023-04-18T10:05:06.687Z,13.41
2023-04-18T10:07:33.456Z,13.34
2023-04-18T10:10:00.140Z,13.31
2023-04-18T10:12:27.036Z,13.30
2023-04-18T10:14:54.591Z,13.31
2023-04-18T10:17:21.350Z,13.29
2023-04-18T10:20:03.908Z,13.29
2023-04-18T10:22:30.617Z,13.28
2023-04-18T10:24:57.199Z,13.26
2023-04-18T10:27:48.983Z,13.29
2023-04-18T10:30:16.717Z,13.35
2023-04-18T10:32:43.586Z,13.36
2023-04-18T10:35:11.363Z,13.37
2023-04-18T10:37:59.884Z,13.36
2023-04-18T10:40:34.153Z,13.41
2023-04-18T10:43:01.565Z,13.52
2023-04-18T10:45:32.904Z,13.65
2023-04-18T10:48:28.105Z,13.80
2023-04-18T10:51:14.553Z,14.00
2023-04-18T10:53:49.097Z,14.12
2023-04-18T10:56:15.931Z,14.20
2023-04-18T10:58:49.354Z,14.22
2023-04-18T11:01:24.719Z,14.13
2023-04-18T11:03:51.697Z,14.08
2023-04-18T11:06:18.427Z,14.02
2023-04-18T11:08:45.349Z,13.98
2023-04-18T11:11:13.704Z,13.95
2023-04-18T11:13:59.647Z,13.88
2023-04-18T11:16:31.887Z,13.91
2023-04-18T11:18:58.587Z,13.92
2023-04-18T11:21:30.642Z,14.11
2023-04-18T11:23:58.397Z,14.19
2023-04-18T11:26:26.346Z,14.09
2023-04-18T11:28:59.187Z,14.04
2023-04-18T11:31:26.058Z,14.04
2023-04-18T11:33:52.720Z,14.10
2023-04-18T11:36:19.603Z,14.22
2023-04-18T11:38:46.392Z,14.23
2023-04-18T11:41:16.073Z,14.16
2023-04-18T11:43:44.588Z,14.15
2023-04-18T11:46:12.519Z,14.15
2023-04-18T11:48:41.795Z,14.18
2023-04-18T11:51:29.732Z,14.23
2023-04-18T11:53:56.444Z,14.33
2023-04-18T11:56:23.091Z,14.47
2023-04-18T11:58:49.826Z,14.48
2023-04-18T12:01:21.596Z,14.46
2023-04-18T12:04:05.660Z,14.43
2023-04-18T12:06:49.354Z,14.48
2023-04-18T12:09:17.265Z,14.47
2023-04-18T12:11:44.338Z,14.47
2023-04-18T12:14:21.124Z,14.46
2023-04-18T12:16:51.743Z,14.47
2023-04-18T12:19:18.862Z,14.51
2023-04-18T12:22:00.278Z,14.63
2023-04-18T12:24:27.959Z,14.76
2023-04-18T12:26:55.573Z,14.79
2023-04-18T12:29:22.235Z,14.77
2023-04-18T12:31:48.954Z,14.80
2023-04-18T12:34:15.951Z,14.85
2023-04-18T12:36:42.997Z,14.89
2023-04-18T12:39:09.654Z,14.89
2023-04-18T12:41:36.510Z,15.07
2023-04-18T12:44:03.725Z,15.14
2023-04-18T12:46:30.753Z,15.09
2023-04-18T12:48:57.500Z,15.02
2023-04-18T12:51:25.455Z,15.01
2023-04-18T12:53:52.219Z,15.18
2023-04-18T12:56:18.832Z,15.16
2023-04-18T12:58:45.524Z,15.04
2023-04-18T13:01:12.436Z,15.03
2023-04-18T13:03:39.252Z,14.93
2023-04-18T13:06:06.155Z,14.80
2023-04-18T13:08:32.823Z,14.71
2023-04-18T13:10:59.676Z,14.78
2023-04-18T13:13:26.399Z,14.78
2023-04-18T13:15:53.246Z,14.75
2023-04-18T13:18:22.840Z,14.73
2023-04-18T13:20:49.633Z,14.65
2023-04-18T13:23:16.231Z,14.63
2023-04-18T13:25:43.003Z,14.51
2023-04-18T13:28:09.668Z,14.48
2023-04-18T13:30:36.408Z,14.47
2023-04-18T13:33:03.158Z,14.41
2023-04-18T13:35:30.176Z,14.43
2023-04-18T13:37:56.829Z,14.33
2023-04-18T13:40:23.492Z,14.23
2023-04-18T13:42:50.156Z,14.19
2023-04-18T13:45:16.760Z,14.11
2023-04-18T13:47:43.433Z,14.06
2023-04-18T13:50:10.410Z,14.07
2023-04-18T13:52:37.063Z,14.07
2023-04-18T13:55:03.993Z,14.06
2023-04-18T13:57:30.825Z,14.06
2023-04-18T13:59:57.708Z,14.09
2023-04-18T14:02:24.425Z,14.04
2023-04-18T14:04:51.321Z,14.03
2023-04-18T14:07:18.063Z,13.99
2023-04-18T14:09:44.807Z,13.99
2023-04-18T14:12:11.418Z,13.95
2023-04-18T14:14:38.150Z,13.92
2023-04-18T14:17:05.073Z,13.90
2023-04-18T14:19:31.673Z,13.95
2023-04-18T14:21:58.226Z,13.94
2023-04-18T14:24:24.875Z,13.91
2023-04-18T14:26:51.430Z,13.94
2023-04-18T14:29:18.067Z,13.96
2023-04-18T14:31:44.905Z,13.93
2023-04-18T14:34:11.709Z,13.92
2023-04-18T14:36:38.396Z,13.92
2023-04-18T14:39:04.989Z,13.90
2023-04-18T14:41:31.841Z,13.95
2023-04-18T14:43:58.479Z,13.95
2023-04-18T14:46:25.175Z,13.94
2023-04-18T14:48:51.827Z,13.93
2023-04-18T14:51:18.422Z,13.91
2023-04-18T14:53:45.222Z,13.97
2023-04-18T14:56:12.201Z,13.97
2023-04-18T14:58:38.805Z,13.98
2023-04-18T15:01:05.612Z,14.00
2023-04-18T15:03:32.505Z,14.00
2023-04-18T15:05:59.514Z,14.01
2023-04-18T15:08:26.177Z,14.08
2023-04-18T15:10:52.876Z,14.04
2023-04-18T15:13:20.935Z,13.95
2023-04-18T15:15:52.233Z,13.91
2023-04-18T15:18:18.991Z,13.89
2023-04-18T15:20:45.703Z,13.90
2023-04-18T15:23:12.298Z,13.91
2023-04-18T15:25:39.059Z,13.94
2023-04-18T15:28:05.791Z,13.95
2023-04-18T15:30:32.908Z,13.93
2023-04-18T15:32:59.491Z,13.93
2023-04-18T15:35:26.273Z,13.91
2023-04-18T15:37:52.884Z,13.91
2023-04-18T15:40:19.671Z,13.90
2023-04-18T15:42:46.345Z,13.95
2023-04-18T15:45:12.920Z,13.94
2023-04-18T15:47:39.621Z,13.93
2023-04-18T15:50:07.017Z,13.91
2023-04-18T15:52:33.865Z,13.89
2023-04-18T15:55:00.657Z,13.87
2023-04-18T15:57:27.392Z,13.91
2023-04-18T15:59:54.096Z,13.90
2023-04-18T16:02:20.760Z,13.87
2023-04-18T16:04:47.567Z,13.85
2023-04-18T16:07:14.199Z,13.90
2023-04-18T16:09:40.803Z,13.92
2023-04-18T16:12:07.538Z,13.91
2023-04-18T16:14:34.214Z,13.90
2023-04-18T16:17:00.775Z,13.87
2023-04-18T16:19:27.476Z,13.88
2023-04-18T16:21:54.116Z,13.86
2023-04-18T16:24:20.744Z,13.83
2023-04-18T16:26:47.383Z,13.86
2023-04-18T16:29:13.949Z,13.82
2023-04-18T16:31:40.651Z,13.82
2023-04-18T16:34:07.374Z,13.77
2023-04-18T16:36:34.198Z,13.75
2023-04-18T16:39:00.867Z,13.68
2023-04-18T16:41:27.598Z,13.61
2023-04-18T16:43:54.160Z,13.55
2023-04-18T16:46:23.932Z,13.57
2023-04-18T16:48:52.285Z,13.55
2023-04-18T16:51:19.158Z,13.57
2023-04-18T16:53:45.776Z,13.54
2023-04-18T16:56:12.420Z,13.52
2023-04-18T16:58:39.142Z,13.51
2023-04-18T17:01:05.719Z,13.49
2023-04-18T17:03:32.634Z,13.43
2023-04-18T17:05:59.371Z,13.42
2023-04-18T17:08:25.946Z,13.38
2023-04-18T17:10:52.808Z,13.35
2023-04-18T17:13:19.575Z,13.35
2023-04-18T17:15:46.298Z,13.35
2023-04-18T17:18:12.892Z,13.32
2023-04-18T17:20:39.540Z,13.29
2023-04-18T17:23:06.129Z,13.29
2023-04-18T17:25:32.911Z,13.28
2023-04-18T17:27:59.500Z,13.27
2023-04-18T17:30:28.978Z,13.30
2023-04-18T17:32:55.670Z,13.28
2023-04-18T17:35:22.544Z,13.24
2023-04-18T17:37:49.762Z,13.20
2023-04-18T17:40:16.388Z,13.17
2023-04-18T17:42:43.088Z,13.12
2023-04-18T17:45:10.428Z,13.11
2023-04-18T17:47:37.110Z,13.08
2023-04-18T17:50:04.521Z,13.09
2023-04-18T17:52:31.290Z,13.04
2023-04-18T17:54:59.229Z,13.00
2023-04-18T17:57:26.220Z,12.97
2023-04-18T17:59:53.310Z,12.94
2023-04-18T18:02:20.182Z,12.88
2023-04-18T18:04:46.835Z,12.84
2023-04-18T18:07:13.394Z,12.78
2023-04-18T18:09:40.001Z,12.73
2023-04-18T18:12:06.791Z,12.72
2023-04-18T18:14:33.357Z,12.68
2023-04-18T18:16:59.956Z,12.65
2023-04-18T18:19:26.800Z,12.65
2023-04-18T18:21:53.366Z,12.62
2023-04-18T18:24:19.984Z,12.62
2023-04-18T18:26:48.546Z,12.63
2023-04-18T18:29:16.490Z,12.58
2023-04-18T18:31:43.412Z,12.55
2023-04-18T18:34:10.065Z,12.54
2023-04-18T18:36:36.927Z,12.53
2023-04-18T18:39:03.723Z,12.56
2023-04-18T18:41:30.316Z,12.52
2023-04-18T18:43:56.951Z,12.51
2023-04-18T18:46:23.542Z,12.49
2023-04-18T18:48:50.188Z,12.47
2023-04-18T18:51:18.775Z,12.47
2023-04-18T18:53:46.566Z,12.48
2023-04-18T18:56:13.272Z,12.51
2023-04-18T18:58:39.940Z,12.48
2023-04-18T19:01:06.886Z,12.48
2023-04-18T19:03:33.628Z,12.49
2023-04-18T19:06:00.405Z,12.47
2023-04-18T19:08:27.041Z,12.45
2023-04-18T19:10:53.594Z,12.44
2023-04-18T19:13:21.708Z,12.44
2023-04-18T19:15:48.353Z,12.36
2023-04-18T19:18:15.320Z,12.39
2023-04-18T19:20:42.096Z,12.43
2023-04-18T19:23:08.779Z,12.42
2023-04-18T19:25:35.346Z,12.41
2023-04-18T19:28:02.015Z,12.40
2023-04-18T19:30:28.748Z,12.38
2023-04-18T19:32:55.345Z,12.38
2023-04-18T19:35:22.067Z,12.36
2023-04-18T19:37:48.720Z,12.37
2023-04-18T19:40:15.431Z,12.37
2023-04-18T19:42:42.039Z,12.35
2023-04-18T19:45:09.137Z,12.36
2023-04-18T19:47:35.773Z,12.34
2023-04-18T19:50:03.676Z,12.34
2023-04-18T19:52:30.551Z,12.36
2023-04-18T19:54:57.192Z,12.37
2023-04-18T19:57:23.824Z,12.37
2023-04-18T19:59:50.479Z,12.35
2023-04-18T20:02:17.081Z,12.36
2023-04-18T20:04:43.913Z,12.37
2023-04-18T20:07:10.746Z,12.33
2023-04-18T20:09:37.489Z,12.31
2023-04-18T20:12:04.136Z,12.28
2023-04-18T20:14:32.325Z,12.28
2023-04-18T20:16:58.975Z,12.27
2023-04-18T20:19:25.686Z,12.26
2023-04-18T20:21:52.657Z,12.25
2023-04-18T20:24:19.489Z,12.25
2023-04-18T20:26:46.080Z,12.25
2023-04-18T20:29:13.016Z,12.25
2023-04-18T20:31:39.964Z,12.25
2023-04-18T20:34:06.733Z,12.26
2023-04-18T20:36:33.307Z,12.25
2023-04-18T20:38:59.954Z,12.26
2023-04-18T20:41:26.624Z,12.24
2023-04-18T20:43:53.411Z,12.25
2023-04-18T20:46:20.034Z,12.24
2023-04-18T20:48:46.734Z,12.24
2023-04-18T20:51:13.345Z,12.24
2023-04-18T20:53:40.059Z,12.23
2023-04-18T20:56:06.854Z,12.24
2023-04-18T20:58:33.516Z,12.23
2023-04-18T21:01:00.192Z,12.23
2023-04-18T21:03:26.864Z,12.23
2023-04-18T21:05:53.704Z,12.24
2023-04-18T21:08:20.268Z,12.24
2023-04-18T21:10:47.010Z,12.25
2023-04-18T21:13:13.557Z,12.25
2023-04-18T21:15:41.475Z,12.24
2023-04-18T21:18:08.235Z,12.21
2023-04-18T21:20:34.835Z,12.19
2023-04-18T21:23:01.490Z,12.17
2023-04-18T21:25:28.306Z,12.15
2023-04-18T21:27:54.877Z,12.11
2023-04-18T21:30:21.613Z,12.07
2023-04-18T21:32:48.195Z,12.04
2023-04-18T21:35:16.073Z,12.02
2023-04-18T21:37:43.973Z,11.94
2023-04-18T21:40:10.828Z,11.93
2023-04-18T21:42:37.442Z,11.88
2023-04-18T21:45:05.844Z,11.86
2023-04-18T21:47:32.763Z,11.82
2023-04-18T21:49:59.790Z,11.80
2023-04-18T21:52:26.480Z,11.78
2023-04-18T21:54:53.130Z,11.78
2023-04-18T21:57:19.801Z,11.76
2023-04-18T21:59:46.357Z,11.75
2023-04-18T22:02:12.955Z,11.73
2023-04-18T22:04:39.628Z,11.74
2023-04-18T22:07:06.256Z,11.73
2023-04-18T22:09:35.332Z,11.70
2023-04-18T22:12:02.008Z,11.67
2023-04-18T22:14:28.583Z,11.65
2023-04-18T22:16:55.184Z,11.68
2023-04-18T22:19:21.937Z,11.68
2023-04-18T22:21:48.692Z,11.65
2023-04-18T22:24:15.506Z,11.64
2023-04-18T22:26:42.379Z,11.61
2023-04-18T22:29:08.936Z,11.60
2023-04-18T22:31:35.475Z,11.58
2023-04-18T22:34:02.101Z,11.58
2023-04-18T22:36:29.000Z,11.56
2023-04-18T22:38:55.575Z,11.58
2023-04-18T22:41:22.196Z,11.56
2023-04-18T22:43:49.143Z,11.57
2023-04-18T22:46:15.774Z,11.55
2023-04-18T22:48:42.320Z,11.54
2023-04-18T22:51:09.159Z,11.52
2023-04-18T22:53:35.876Z,11.48
2023-04-18T22:56:02.460Z,11.46
2023-04-18T22:58:29.073Z,11.45
2023-04-18T23:00:55.811Z,11.44
2023-04-18T23:03:22.645Z,11.47
2023-04-18T23:05:49.408Z,11.47
2023-04-18T23:08:16.094Z,11.46
2023-04-18T23:10:42.682Z,11.46
2023-04-18T23:13:09.321Z,11.43
2023-04-18T23:15:35.995Z,11.40
2023-04-18T23:18:02.729Z,11.40
2023-04-18T23:20:29.475Z,11.40
2023-04-18T23:22:56.135Z,11.40
2023-04-18T23:25:22.919Z,11.39
2023-04-18T23:27:49.490Z,11.40
2023-04-18T23:30:16.144Z,11.40
2023-04-18T23:32:42.830Z,11.41
2023-04-18T23:35:11.221Z,11.40
2023-04-18T23:37:37.820Z,11.38
2023-04-18T23:40:04.843Z,11.37
2023-04-18T23:42:31.426Z,11.39
2023-04-18T23:44:58.116Z,11.39
2023-04-18T23:47:24.694Z,11.37
2023-04-18T23:49:51.366Z,11.39
2023-04-18T23:52:17.955Z,11.38
2023-04-18T23:54:45.499Z,11.36
2023-04-18T23:57:12.280Z,11.34
2023-04-18T23:59:39.033Z,11.37
